Time,TemperatureF,DewpointF,PressureIn,WindDirection,WindDirectionDegrees,WindSpeedMPH,WindSpeedGustMPH,Humidity,HourlyPrecipIn,Conditions,Clouds,dailyrainin,SoftwareType,DateUTC
2013-01-18 00:00:00,27.8,14.2,30.27,WSW,243,0.0,3.0,56,0.00,,---,0.00,VWS V14.01,2013-01-18 08:00:00,
2013-01-18 00:03:00,27.7,14.1,30.27,West,262,1.0,2.0,56,0.00,,---,0.00,VWS V14.01,2013-01-18 08:03:00,
2013-01-18 00:08:00,28.1,14.4,30.27,West,271,0.0,2.0,56,0.00,,---,0.00,VWS V14.01,2013-01-18 08:08:00,
2013-01-18 00:13:00,28.5,14.4,30.27,WSW,246,2.0,3.0,55,0.00,,---,0.00,VWS V14.01,2013-01-18 08:13:00,
2013-01-18 00:18:00,28.8,14.3,30.27,West,266,0.0,3.0,54,0.00,,---,0.00,VWS V14.01,2013-01-18 08:18:00,
2013-01-18 00:23:00,28.3,13.8,30.27,West,270,0.0,3.0,54,0.00,,---,0.00,VWS V14.01,2013-01-18 08:23:00,
2013-01-18 00:28:00,28.2,14.5,30.27,West,264,0.0,3.0,56,0.00,,---,0.00,VWS V14.01,2013-01-18 08:28:00,
2013-01-18 00:30:00,28.2,14.5,30.27,West,264,1.0,3.0,56,0.00,,---,0.00,VWS V14.01,2013-01-18 08:30:00,
2013-01-18 00:33:00,28.2,14.5,30.27,West,259,0.0,2.0,56,0.00,,---,0.00,VWS V14.01,2013-01-18 08:33:00,
2013-01-18 00:38:00,28.3,14.2,30.27,West,278,0.0,3.0,55,0.00,,---,0.00,VWS V14.01,2013-01-18 08:38:00,
2013-01-18 00:43:00,28.2,14.5,30.27,West,262,1.0,3.0,56,0.00,,---,0.00,VWS V14.01,2013-01-18 08:43:00,
2013-01-18 00:48:00,28.1,14.0,30.27,West,273,1.0,3.0,55,0.00,,---,0.00,VWS V14.01,2013-01-18 08:48:00,
2013-01-18 00:53:00,27.9,13.8,30.27,WSW,240,1.0,3.0,55,0.00,,---,0.00,VWS V14.01,2013-01-18 08:53:00,
2013-01-18 00:58:00,27.6,13.1,30.27,West,266,0.0,3.0,54,0.00,,---,0.00,VWS V14.01,2013-01-18 08:58:00,
2013-01-18 01:00:00,27.5,13.1,30.27,West,266,0.0,3.0,54,0.00,,---,0.00,VWS V14.01,2013-01-18 09:00:00,
2013-01-18 01:03:00,26.8,14.0,30.27,West,265,2.0,3.0,58,0.00,,---,0.00,VWS V14.01,2013-01-18 09:03:00,
2013-01-18 01:08:00,27.0,13.8,30.27,West,264,1.0,3.0,57,0.00,,---,0.00,VWS V14.01,2013-01-18 09:08:00,
2013-01-18 01:13:00,26.5,14.5,30.27,West,260,2.0,3.0,60,0.00,,---,0.00,VWS V14.01,2013-01-18 09:13:00,
2013-01-18 01:18:00,26.6,13.8,30.27,West,276,1.0,3.0,58,0.00,,---,0.00,VWS V14.01,2013-01-18 09:18:00,
2013-01-18 01:23:00,26.4,14.4,30.27,West,276,0.0,3.0,60,0.00,,---,0.00,VWS V14.01,2013-01-18 09:23:00,
2013-01-18 01:28:00,26.3,13.9,30.27,West,259,1.0,3.0,59,0.00,,---,0.00,VWS V14.01,2013-01-18 09:28:00,
2013-01-18 01:30:00,26.3,13.9,30.27,West,267,1.0,3.0,59,0.00,,---,0.00,VWS V14.01,2013-01-18 09:30:00,
2013-01-18 01:33:00,26.1,14.5,30.27,West,277,0.0,4.0,61,0.00,,---,0.00,VWS V14.01,2013-01-18 09:33:00,
2013-01-18 01:38:00,26.1,14.5,30.27,WSW,258,0.0,4.0,61,0.00,,---,0.00,VWS V14.01,2013-01-18 09:38:00,
2013-01-18 01:43:00,26.4,14.4,30.27,West,276,0.0,4.0,60,0.00,,---,0.00,VWS V14.01,2013-01-18 09:43:00,
2013-01-18 01:48:00,26.5,14.5,30.27,WSW,243,1.0,4.0,60,0.00,,---,0.00,VWS V14.01,2013-01-18 09:48:00,
2013-01-18 01:53:00,26.6,14.6,30.27,West,262,1.0,4.0,60,0.00,,---,0.00,VWS V14.01,2013-01-18 09:53:00,
2013-01-18 01:58:00,27.0,14.6,30.27,WSW,246,3.0,4.0,59,0.00,,---,0.00,VWS V14.01,2013-01-18 09:58:00,
2013-01-18 02:00:00,27.0,14.6,30.27,West,260,2.0,4.0,59,0.00,,---,0.00,VWS V14.01,2013-01-18 10:00:00,
2013-01-18 02:03:00,27.4,15.0,30.27,SW,231,1.0,2.0,59,0.00,,---,0.00,VWS V14.01,2013-01-18 10:03:00,
2013-01-18 02:08:00,27.8,14.6,30.27,West,274,0.0,2.0,57,0.00,,---,0.00,VWS V14.01,2013-01-18 10:08:00,
2013-01-18 02:13:00,28.0,14.8,30.27,West,273,0.0,2.0,57,0.00,,---,0.00,VWS V14.01,2013-01-18 10:13:00,
2013-01-18 02:18:00,28.0,14.8,30.27,West,264,1.0,2.0,57,0.00,,---,0.00,VWS V14.01,2013-01-18 10:18:00,
2013-01-18 02:23:00,28.1,14.8,30.27,West,263,0.0,2.0,57,0.00,,---,0.00,VWS V14.01,2013-01-18 10:23:00,
2013-01-18 02:28:00,28.1,14.8,30.26,West,276,1.0,2.0,57,0.00,,---,0.00,VWS V14.01,2013-01-18 10:28:00,
2013-01-18 02:30:00,28.2,14.9,30.26,West,260,1.0,2.0,57,0.00,,---,0.00,VWS V14.01,2013-01-18 10:30:00,
2013-01-18 02:33:00,28.2,14.9,30.27,West,259,1.0,2.0,57,0.00,,---,0.00,VWS V14.01,2013-01-18 10:33:00,
2013-01-18 02:38:00,28.4,14.7,30.26,WSW,246,0.0,3.0,56,0.00,,---,0.00,VWS V14.01,2013-01-18 10:38:00,
2013-01-18 02:43:00,28.5,14.8,30.26,West,263,1.0,3.0,56,0.00,,---,0.00,VWS V14.01,2013-01-18 10:43:00,
2013-01-18 02:48:00,28.6,14.5,30.26,West,263,0.0,3.0,55,0.00,,---,0.00,VWS V14.01,2013-01-18 10:48:00,
2013-01-18 02:53:00,28.5,14.8,30.26,West,267,0.0,3.0,56,0.00,,---,0.00,VWS V14.01,2013-01-18 10:53:00,
2013-01-18 02:58:00,28.1,14.0,30.26,West,266,0.0,3.0,55,0.00,,---,0.00,VWS V14.01,2013-01-18 10:58:00,
2013-01-18 03:00:00,28.0,13.9,30.26,West,266,0.0,3.0,55,0.00,,---,0.00,VWS V14.01,2013-01-18 11:00:00,
2013-01-18 03:03:00,26.5,12.5,30.26,West,266,0.0,0.0,55,0.00,,---,0.00,VWS V14.01,2013-01-18 11:03:00,
2013-01-18 03:08:00,24.7,12.0,30.26,West,276,0.0,1.0,58,0.00,,---,0.00,VWS V14.01,2013-01-18 11:08:00,
2013-01-18 03:13:00,23.1,12.0,30.26,West,281,1.0,1.0,62,0.00,,---,0.00,VWS V14.01,2013-01-18 11:13:00,
2013-01-18 03:18:00,22.1,12.5,30.26,West,280,0.0,2.0,66,0.00,,---,0.00,VWS V14.01,2013-01-18 11:18:00,
2013-01-18 03:23:00,22.3,13.7,30.26,SW,235,0.0,2.0,69,0.00,,---,0.00,VWS V14.01,2013-01-18 11:23:00,
2013-01-18 03:28:00,23.1,13.8,30.26,West,273,0.0,2.0,67,0.00,,---,0.00,VWS V14.01,2013-01-18 11:28:00,
2013-01-18 03:30:00,23.2,13.5,30.26,West,273,0.0,2.0,66,0.00,,---,0.00,VWS V14.01,2013-01-18 11:30:00,
2013-01-18 03:33:00,23.4,13.4,30.26,WSW,246,0.0,1.0,65,0.00,,---,0.00,VWS V14.01,2013-01-18 11:33:00,
2013-01-18 03:38:00,22.4,12.1,30.26,West,270,1.0,1.0,64,0.00,,---,0.00,VWS V14.01,2013-01-18 11:38:00,
2013-01-18 03:43:00,21.1,11.2,30.26,West,277,0.0,1.0,65,0.00,,---,0.00,VWS V14.01,2013-01-18 11:43:00,
2013-01-18 03:48:00,20.3,11.8,30.26,West,280,1.0,2.0,69,0.00,,---,0.00,VWS V14.01,2013-01-18 11:48:00,
2013-01-18 03:53:00,20.0,12.1,30.26,West,276,0.0,2.0,71,0.00,,---,0.00,VWS V14.01,2013-01-18 11:53:00,
2013-01-18 03:58:00,20.1,12.9,30.26,West,273,0.0,2.0,73,0.00,,---,0.00,VWS V14.01,2013-01-18 11:58:00,
2013-01-18 04:00:00,20.2,12.9,30.26,West,273,0.0,2.0,73,0.00,,---,0.00,VWS V14.01,2013-01-18 12:00:00,
2013-01-18 04:03:00,20.8,13.2,30.26,WSW,256,0.0,2.0,72,0.00,,---,0.00,VWS V14.01,2013-01-18 12:03:00,
2013-01-18 04:08:00,20.9,12.7,30.26,West,281,2.0,2.0,70,0.00,,---,0.00,VWS V14.01,2013-01-18 12:08:00,
2013-01-18 04:13:00,20.8,12.6,30.26,West,278,0.0,2.0,70,0.00,,---,0.00,VWS V14.01,2013-01-18 12:13:00,
2013-01-18 04:17:00,20.7,13.1,30.25,West,276,0.0,2.0,72,0.00,,---,0.00,VWS V14.01,2013-01-18 12:17:00,
2013-01-18 04:23:00,22.3,15.3,30.26,West,266,0.0,3.0,74,0.00,,---,0.00,VWS V14.01,2013-01-18 12:23:00,
2013-01-18 04:28:00,23.3,15.3,30.26,WSW,245,0.0,3.0,71,0.00,,---,0.00,VWS V14.01,2013-01-18 12:28:00,
2013-01-18 04:30:00,23.4,15.4,30.26,WSW,243,1.0,3.0,71,0.00,,---,0.00,VWS V14.01,2013-01-18 12:30:00,
2013-01-18 04:33:00,24.5,15.5,30.25,WSW,256,0.0,3.0,68,0.00,,---,0.00,VWS V14.01,2013-01-18 12:33:00,
2013-01-18 04:38:00,24.8,14.7,30.25,West,280,0.0,3.0,65,0.00,,---,0.00,VWS V14.01,2013-01-18 12:38:00,
2013-01-18 04:43:00,24.3,13.9,30.25,West,264,0.0,3.0,64,0.00,,---,0.00,VWS V14.01,2013-01-18 12:43:00,
2013-01-18 04:48:00,24.5,14.8,30.26,West,264,0.0,3.0,66,0.00,,---,0.00,VWS V14.01,2013-01-18 12:48:00,
2013-01-18 04:53:00,24.8,14.4,30.25,West,276,1.0,3.0,64,0.00,,---,0.00,VWS V14.01,2013-01-18 12:53:00,
2013-01-18 04:58:00,24.4,14.0,30.25,West,262,0.0,3.0,64,0.00,,---,0.00,VWS V14.01,2013-01-18 12:58:00,
2013-01-18 05:00:00,24.3,13.9,30.25,West,261,1.0,3.0,64,0.00,,---,0.00,VWS V14.01,2013-01-18 13:00:00,
2013-01-18 05:03:00,24.4,14.7,30.25,West,260,0.0,2.0,66,0.00,,---,0.00,VWS V14.01,2013-01-18 13:03:00,
2013-01-18 05:08:00,24.8,14.7,30.25,West,274,1.0,2.0,65,0.00,,---,0.00,VWS V14.01,2013-01-18 13:08:00,
2013-01-18 05:13:00,24.7,14.6,30.25,WSW,256,2.0,2.0,65,0.00,,---,0.00,VWS V14.01,2013-01-18 13:13:00,
2013-01-18 05:18:00,24.8,15.1,30.26,West,280,1.0,2.0,66,0.00,,---,0.00,VWS V14.01,2013-01-18 13:18:00,
2013-01-18 05:23:00,25.1,15.0,30.26,SW,236,0.0,3.0,65,0.00,,---,0.00,VWS V14.01,2013-01-18 13:23:00,
2013-01-18 05:28:00,25.4,14.9,30.26,WSW,254,0.0,3.0,64,0.00,,---,0.00,VWS V14.01,2013-01-18 13:28:00,
2013-01-18 05:30:00,25.4,14.9,30.26,West,269,0.0,3.0,64,0.00,,---,0.00,VWS V14.01,2013-01-18 13:30:00,
2013-01-18 05:32:00,25.9,14.7,30.26,West,272,1.0,2.0,62,0.00,,---,0.00,VWS V14.01,2013-01-18 13:32:00,
2013-01-18 05:37:00,26.4,14.4,30.26,West,277,0.0,2.0,60,0.00,,---,0.00,VWS V14.01,2013-01-18 13:37:00,
2013-01-18 05:42:00,26.4,14.8,30.26,West,271,2.0,3.0,61,0.00,,---,0.00,VWS V14.01,2013-01-18 13:42:00,
2013-01-18 05:47:00,26.4,14.8,30.26,West,281,1.0,3.0,61,0.00,,---,0.00,VWS V14.01,2013-01-18 13:47:00,
2013-01-18 05:52:00,25.9,14.3,30.26,West,259,1.0,3.0,61,0.00,,---,0.00,VWS V14.01,2013-01-18 13:52:00,
2013-01-18 05:57:00,25.8,14.6,30.26,West,276,0.0,3.0,62,0.00,,---,0.00,VWS V14.01,2013-01-18 13:57:00,
2013-01-18 06:00:00,25.8,14.6,30.26,West,274,0.0,3.0,62,0.00,,---,0.00,VWS V14.01,2013-01-18 14:00:00,
2013-01-18 06:02:00,25.4,13.8,30.26,West,266,0.0,2.0,61,0.00,,---,0.00,VWS V14.01,2013-01-18 14:02:00,
2013-01-18 06:07:00,25.2,14.4,30.26,West,273,1.0,2.0,63,0.00,,---,0.00,VWS V14.01,2013-01-18 14:07:00,
2013-01-18 06:12:00,25.3,14.5,30.26,West,263,0.0,3.0,63,0.00,,---,0.00,VWS V14.01,2013-01-18 14:12:00,
2013-01-18 06:17:00,25.3,14.5,30.26,SW,233,0.0,3.0,63,0.00,,---,0.00,VWS V14.01,2013-01-18 14:17:00,
2013-01-18 06:22:00,25.3,14.5,30.26,WSW,252,1.0,3.0,63,0.00,,---,0.00,VWS V14.01,2013-01-18 14:22:00,
2013-01-18 06:28:00,25.4,14.6,30.26,WSW,256,0.0,3.0,63,0.00,,---,0.00,VWS V14.01,2013-01-18 14:28:00,
2013-01-18 06:30:00,25.4,14.6,30.26,WSW,256,0.0,3.0,63,0.00,,---,0.00,VWS V14.01,2013-01-18 14:30:00,
2013-01-18 06:32:00,25.5,14.7,30.27,West,263,1.0,2.0,63,0.00,,---,0.00,VWS V14.01,2013-01-18 14:32:00,
2013-01-18 06:37:00,25.7,14.9,30.27,West,259,0.0,3.0,63,0.00,,---,0.00,VWS V14.01,2013-01-18 14:37:00,
2013-01-18 06:42:00,25.8,14.6,30.27,WSW,249,0.0,3.0,62,0.00,,---,0.00,VWS V14.01,2013-01-18 14:42:00,
2013-01-18 06:47:00,25.6,14.4,30.27,WSW,256,0.0,3.0,62,0.00,,---,0.00,VWS V14.01,2013-01-18 14:47:00,
2013-01-18 06:52:00,25.6,14.4,30.27,West,269,2.0,3.0,62,0.00,,---,0.00,VWS V14.01,2013-01-18 14:52:00,
2013-01-18 06:57:00,25.7,14.5,30.27,WSW,243,1.0,3.0,62,0.00,,---,0.00,VWS V14.01,2013-01-18 14:57:00,
2013-01-18 07:00:00,25.7,14.5,30.27,West,274,0.0,3.0,62,0.00,,---,0.00,VWS V14.01,2013-01-18 15:00:00,
2013-01-18 07:02:00,25.7,14.5,30.27,West,262,0.0,2.0,62,0.00,,---,0.00,VWS V14.01,2013-01-18 15:02:00,
2013-01-18 07:07:00,25.9,14.7,30.27,WSW,246,0.0,2.0,62,0.00,,---,0.00,VWS V14.01,2013-01-18 15:07:00,
2013-01-18 07:12:00,25.9,14.3,30.27,West,271,1.0,2.0,61,0.00,,---,0.00,VWS V14.01,2013-01-18 15:12:00,
2013-01-18 07:17:00,26.1,14.5,30.28,West,267,1.0,2.0,61,0.00,,---,0.00,VWS V14.01,2013-01-18 15:17:00,
2013-01-18 07:22:00,26.3,14.7,30.28,West,260,1.0,2.0,61,0.00,,---,0.00,VWS V14.01,2013-01-18 15:22:00,
2013-01-18 07:27:00,26.7,14.7,30.28,WSW,240,0.0,3.0,60,0.00,,---,0.00,VWS V14.01,2013-01-18 15:27:00,
2013-01-18 07:30:00,26.7,14.7,30.28,WSW,250,0.0,3.0,60,0.00,,---,0.00,VWS V14.01,2013-01-18 15:30:00,
2013-01-18 07:32:00,27.1,15.1,30.28,WSW,249,0.0,2.0,60,0.00,,---,0.00,VWS V14.01,2013-01-18 15:32:00,
2013-01-18 07:37:00,27.6,15.2,30.28,West,276,1.0,2.0,59,0.00,,---,0.00,VWS V14.01,2013-01-18 15:37:00,
2013-01-18 07:42:00,28.3,15.4,30.28,West,276,2.0,2.0,58,0.00,,---,0.00,VWS V14.01,2013-01-18 15:42:00,
2013-01-18 07:47:00,29.0,15.7,30.29,West,277,0.0,3.0,57,0.00,,---,0.00,VWS V14.01,2013-01-18 15:47:00,
2013-01-18 07:52:00,29.7,16.4,30.29,West,260,0.0,3.0,57,0.00,,---,0.00,VWS V14.01,2013-01-18 15:52:00,
2013-01-18 07:57:00,30.2,16.4,30.29,West,273,0.0,3.0,56,0.00,,---,0.00,VWS V14.01,2013-01-18 15:57:00,
2013-01-18 08:00:00,30.3,16.5,30.29,West,269,1.0,3.0,56,0.00,,---,0.00,VWS V14.01,2013-01-18 16:00:00,
2013-01-18 08:02:00,30.6,17.2,30.29,West,276,1.0,1.0,57,0.00,,---,0.00,VWS V14.01,2013-01-18 16:02:00,
2013-01-18 08:07:00,31.0,17.6,30.29,West,266,0.0,1.0,57,0.00,,---,0.00,VWS V14.01,2013-01-18 16:07:00,
2013-01-18 08:12:00,31.8,18.3,30.29,West,270,0.0,2.0,57,0.00,,---,0.00,VWS V14.01,2013-01-18 16:12:00,
2013-01-18 08:17:00,32.8,18.8,30.30,West,280,1.0,2.0,56,0.00,,---,0.00,VWS V14.01,2013-01-18 16:17:00,
2013-01-18 08:22:00,33.6,19.2,30.30,West,274,0.0,2.0,55,0.00,,---,0.00,VWS V14.01,2013-01-18 16:22:00,
2013-01-18 08:27:00,34.7,19.8,30.30,West,276,0.0,2.0,54,0.00,,---,0.00,VWS V14.01,2013-01-18 16:27:00,
2013-01-18 08:30:00,34.8,19.9,30.30,West,277,0.0,2.0,54,0.00,,---,0.00,VWS V14.01,2013-01-18 16:30:00,
2013-01-18 08:32:00,35.7,20.3,30.30,West,276,0.0,0.0,53,0.00,,---,0.00,VWS V14.01,2013-01-18 16:32:00,
2013-01-18 08:37:00,36.9,20.5,30.30,West,277,0.0,0.0,51,0.00,,---,0.00,VWS V14.01,2013-01-18 16:37:00,
2013-01-18 08:42:00,38.1,20.6,30.30,West,277,0.0,0.0,49,0.00,,---,0.00,VWS V14.01,2013-01-18 16:42:00,
2013-01-18 08:47:00,39.5,21.0,30.30,West,277,0.0,0.0,47,0.00,,---,0.00,VWS V14.01,2013-01-18 16:47:00,
2013-01-18 08:52:00,40.9,20.7,30.30,West,277,0.0,0.0,44,0.00,,---,0.00,VWS V14.01,2013-01-18 16:52:00,
2013-01-18 08:57:00,42.4,21.0,30.31,West,277,0.0,0.0,42,0.00,,---,0.00,VWS V14.01,2013-01-18 16:57:00,
2013-01-18 09:00:00,42.7,21.2,30.31,West,277,0.0,0.0,42,0.00,,---,0.00,VWS V14.01,2013-01-18 17:00:00,
2013-01-18 09:02:00,44.5,19.2,30.31,NW,309,0.0,0.0,36,0.00,,---,0.00,VWS V14.01,2013-01-18 17:02:00,
2013-01-18 09:07:00,46.3,18.8,30.31,NW,309,0.0,0.0,33,0.00,,---,0.00,VWS V14.01,2013-01-18 17:07:00,
2013-01-18 09:12:00,47.2,17.4,30.31,ENE,63,0.0,0.0,30,0.00,,---,0.00,VWS V14.01,2013-01-18 17:12:00,
2013-01-18 09:17:00,48.4,16.0,30.31,East,92,2.0,2.0,27,0.00,,---,0.00,VWS V14.01,2013-01-18 17:17:00,
2013-01-18 09:22:00,49.4,13.2,30.31,East,82,2.0,6.0,23,0.00,,---,0.00,VWS V14.01,2013-01-18 17:22:00,
2013-01-18 09:27:00,50.0,12.7,30.31,ESE,103,4.0,6.0,22,0.00,,---,0.00,VWS V14.01,2013-01-18 17:27:00,
2013-01-18 09:30:00,50.1,12.8,30.31,ESE,102,3.0,6.0,22,0.00,,---,0.00,VWS V14.01,2013-01-18 17:30:00,
2013-01-18 09:32:00,50.5,12.0,30.31,ESE,116,3.0,6.0,21,0.00,,---,0.00,VWS V14.01,2013-01-18 17:32:00,
2013-01-18 09:37:00,50.8,11.2,30.31,SE,129,4.0,8.0,20,0.00,,---,0.00,VWS V14.01,2013-01-18 17:37:00,
2013-01-18 09:42:00,51.2,11.5,30.31,ENE,70,3.0,8.0,20,0.00,,---,0.00,VWS V14.01,2013-01-18 17:42:00,
2013-01-18 09:47:00,51.6,10.7,30.31,ENE,75,5.0,8.0,19,0.00,,---,0.00,VWS V14.01,2013-01-18 17:47:00,
2013-01-18 09:52:00,51.8,10.9,30.31,ESE,103,3.0,8.0,19,0.00,,---,0.00,VWS V14.01,2013-01-18 17:52:00,
2013-01-18 09:57:00,52.1,9.9,30.31,ENE,72,4.0,9.0,18,0.00,,---,0.00,VWS V14.01,2013-01-18 17:57:00,
2013-01-18 10:00:00,52.1,9.9,30.31,East,91,3.0,9.0,18,0.00,,---,0.00,VWS V14.01,2013-01-18 18:00:00,
2013-01-18 10:02:00,52.4,10.1,30.31,East,95,4.0,8.0,18,0.00,,---,0.00,VWS V14.01,2013-01-18 18:02:00,
2013-01-18 10:07:00,52.8,10.5,30.31,SE,125,1.0,8.0,18,0.00,,---,0.00,VWS V14.01,2013-01-18 18:07:00,
2013-01-18 10:12:00,53.1,10.7,30.31,East,100,3.0,8.0,18,0.00,,---,0.00,VWS V14.01,2013-01-18 18:12:00,
2013-01-18 10:17:00,53.3,9.6,30.31,East,98,4.0,10.0,17,0.00,,---,0.00,VWS V14.01,2013-01-18 18:17:00,
2013-01-18 10:22:00,53.7,9.9,30.31,East,93,3.0,10.0,17,0.00,,---,0.00,VWS V14.01,2013-01-18 18:22:00,
2013-01-18 10:27:00,54.1,10.3,30.31,ENE,71,6.0,10.0,17,0.00,,---,0.00,VWS V14.01,2013-01-18 18:27:00,
2013-01-18 10:30:00,54.1,10.3,30.31,ESE,122,5.0,10.0,17,0.00,,---,0.00,VWS V14.01,2013-01-18 18:30:00,
2013-01-18 10:32:00,54.3,9.1,30.30,East,82,4.0,9.0,16,0.00,,---,0.00,VWS V14.01,2013-01-18 18:32:00,
2013-01-18 10:37:00,54.5,9.2,30.30,East,81,4.0,9.0,16,0.00,,---,0.00,VWS V14.01,2013-01-18 18:37:00,
2013-01-18 10:42:00,54.6,9.3,30.30,East,81,10.0,10.0,16,0.00,,---,0.00,VWS V14.01,2013-01-18 18:42:00,
2013-01-18 10:47:00,54.7,10.8,30.30,ENE,72,7.0,11.0,17,0.00,,---,0.00,VWS V14.01,2013-01-18 18:47:00,
2013-01-18 10:52:00,54.8,9.5,30.30,SE,134,4.0,11.0,16,0.00,,---,0.00,VWS V14.01,2013-01-18 18:52:00,
2013-01-18 10:57:00,54.7,9.4,30.30,ESE,109,5.0,13.0,16,0.00,,---,0.00,VWS V14.01,2013-01-18 18:57:00,
2013-01-18 11:00:00,54.7,9.4,30.30,East,83,11.0,13.0,16,0.00,,---,0.00,VWS V14.01,2013-01-18 19:00:00,
2013-01-18 11:02:00,54.6,9.3,30.30,East,93,5.0,10.0,16,0.00,,---,0.00,VWS V14.01,2013-01-18 19:02:00,
2013-01-18 11:07:00,55.0,9.6,30.29,East,82,6.0,10.0,16,0.00,,---,0.00,VWS V14.01,2013-01-18 19:07:00,
2013-01-18 11:12:00,55.2,9.8,30.29,East,97,7.0,10.0,16,0.00,,---,0.00,VWS V14.01,2013-01-18 19:12:00,
2013-01-18 11:17:00,55.5,10.1,30.29,East,81,6.0,13.0,16,0.00,,---,0.00,VWS V14.01,2013-01-18 19:17:00,
2013-01-18 11:22:00,55.7,10.2,30.28,ENE,68,6.0,13.0,16,0.00,,---,0.00,VWS V14.01,2013-01-18 19:22:00,
2013-01-18 11:27:00,55.8,8.9,30.28,ESE,115,5.0,13.0,15,0.00,,---,0.00,VWS V14.01,2013-01-18 19:27:00,
2013-01-18 11:30:00,55.8,10.3,30.28,East,98,6.0,13.0,16,0.00,,---,0.00,VWS V14.01,2013-01-18 19:30:00,
2013-01-18 11:32:00,55.9,10.4,30.27,ENE,73,8.0,12.0,16,0.00,,---,0.00,VWS V14.01,2013-01-18 19:32:00,
2013-01-18 11:37:00,56.2,9.2,30.27,SE,141,5.0,12.0,15,0.00,,---,0.00,VWS V14.01,2013-01-18 19:37:00,
2013-01-18 11:42:00,56.1,9.1,30.27,ENE,78,6.0,13.0,15,0.00,,---,0.00,VWS V14.01,2013-01-18 19:42:00,
2013-01-18 11:47:00,56.3,9.3,30.26,ESE,117,6.0,13.0,15,0.00,,---,0.00,VWS V14.01,2013-01-18 19:47:00,
2013-01-18 11:52:00,56.5,9.4,30.26,ENE,75,9.0,13.0,15,0.00,,---,0.00,VWS V14.01,2013-01-18 19:52:00,
2013-01-18 11:57:00,56.8,9.7,30.26,East,82,8.0,13.0,15,0.00,,---,0.00,VWS V14.01,2013-01-18 19:57:00,
2013-01-18 12:00:00,56.8,9.7,30.26,East,86,7.0,13.0,15,0.00,,---,0.00,VWS V14.01,2013-01-18 20:00:00,
2013-01-18 12:02:00,57.0,9.8,30.26,ENE,75,8.0,12.0,15,0.00,,---,0.00,VWS V14.01,2013-01-18 20:02:00,
2013-01-18 12:07:00,57.3,10.1,30.25,East,79,7.0,13.0,15,0.00,,---,0.00,VWS V14.01,2013-01-18 20:07:00,
2013-01-18 12:12:00,57.5,8.7,30.25,East,82,9.0,13.0,14,0.00,,---,0.00,VWS V14.01,2013-01-18 20:12:00,
2013-01-18 12:17:00,57.4,8.6,30.25,ENE,67,9.0,13.0,14,0.00,,---,0.00,VWS V14.01,2013-01-18 20:17:00,
2013-01-18 12:22:00,57.6,8.8,30.24,ESE,116,7.0,13.0,14,0.00,,---,0.00,VWS V14.01,2013-01-18 20:22:00,
2013-01-18 12:27:00,58.0,9.1,30.24,ENE,72,10.0,13.0,14,0.00,,---,0.00,VWS V14.01,2013-01-18 20:27:00,
2013-01-18 12:30:00,58.1,9.2,30.24,East,96,10.0,13.0,14,0.00,,---,0.00,VWS V14.01,2013-01-18 20:30:00,
2013-01-18 12:32:00,58.0,9.1,30.24,ESE,105,7.0,12.0,14,0.00,,---,0.00,VWS V14.01,2013-01-18 20:32:00,
2013-01-18 12:37:00,58.4,9.4,30.24,East,93,8.0,12.0,14,0.00,,---,0.00,VWS V14.01,2013-01-18 20:37:00,
2013-01-18 12:42:00,58.6,9.6,30.24,East,91,8.0,15.0,14,0.00,,---,0.00,VWS V14.01,2013-01-18 20:42:00,
2013-01-18 12:47:00,58.9,8.2,30.23,SE,143,5.0,15.0,13,0.00,,---,0.00,VWS V14.01,2013-01-18 20:47:00,
2013-01-18 12:52:00,58.9,8.2,30.23,East,88,5.0,18.0,13,0.00,,---,0.00,VWS V14.01,2013-01-18 20:52:00,
2013-01-18 12:57:00,59.2,8.4,30.23,ESE,117,9.0,18.0,13,0.00,,---,0.00,VWS V14.01,2013-01-18 20:57:00,
2013-01-18 13:00:00,59.1,8.3,30.23,ENE,63,10.0,18.0,13,0.00,,---,0.00,VWS V14.01,2013-01-18 21:00:00,
2013-01-18 13:02:00,58.8,8.1,30.23,East,81,12.0,15.0,13,0.00,,---,0.00,VWS V14.01,2013-01-18 21:02:00,
2013-01-18 13:07:00,59.1,8.3,30.23,East,79,9.0,16.0,13,0.00,,---,0.00,VWS V14.01,2013-01-18 21:07:00,
2013-01-18 13:12:00,59.1,8.3,30.22,ESE,102,6.0,16.0,13,0.00,,---,0.00,VWS V14.01,2013-01-18 21:12:00,
2013-01-18 13:17:00,59.3,8.5,30.22,ESE,102,12.0,16.0,13,0.00,,---,0.00,VWS V14.01,2013-01-18 21:17:00,
2013-01-18 13:22:00,59.3,8.5,30.22,East,89,8.0,16.0,13,0.00,,---,0.00,VWS V14.01,2013-01-18 21:22:00,
2013-01-18 13:27:00,59.4,8.6,30.22,ESE,120,5.0,16.0,13,0.00,,---,0.00,VWS V14.01,2013-01-18 21:27:00,
2013-01-18 13:30:00,59.3,8.5,30.22,ESE,117,4.0,16.0,13,0.00,,---,0.00,VWS V14.01,2013-01-18 21:30:00,
2013-01-18 13:32:00,59.3,8.5,30.22,East,86,10.0,14.0,13,0.00,,---,0.00,VWS V14.01,2013-01-18 21:32:00,
2013-01-18 13:37:00,59.3,8.5,30.22,East,79,7.0,14.0,13,0.00,,---,0.00,VWS V14.01,2013-01-18 21:37:00,
2013-01-18 13:42:00,59.5,8.6,30.22,ENE,74,6.0,15.0,13,0.00,,---,0.00,VWS V14.01,2013-01-18 21:42:00,
2013-01-18 13:47:00,59.7,8.8,30.22,East,99,5.0,15.0,13,0.00,,---,0.00,VWS V14.01,2013-01-18 21:47:00,
2013-01-18 13:52:00,59.8,8.9,30.22,ESE,113,8.0,15.0,13,0.00,,---,0.00,VWS V14.01,2013-01-18 21:52:00,
2013-01-18 13:57:00,59.6,8.7,30.22,East,79,7.0,15.0,13,0.00,,---,0.00,VWS V14.01,2013-01-18 21:57:00,
2013-01-18 14:00:00,59.7,8.8,30.22,SE,124,7.0,15.0,13,0.00,,---,0.00,VWS V14.01,2013-01-18 22:00:00,
2013-01-18 14:02:00,60.1,9.1,30.22,ENE,72,5.0,11.0,13,0.00,,---,0.00,VWS V14.01,2013-01-18 22:02:00,
2013-01-18 14:07:00,60.0,9.0,30.22,ENE,73,4.0,14.0,13,0.00,,---,0.00,VWS V14.01,2013-01-18 22:07:00,
2013-01-18 14:12:00,60.1,9.1,30.22,ENE,75,9.0,14.0,13,0.00,,---,0.00,VWS V14.01,2013-01-18 22:12:00,
2013-01-18 14:17:00,59.9,9.0,30.22,ENE,72,8.0,14.0,13,0.00,,---,0.00,VWS V14.01,2013-01-18 22:17:00,
2013-01-18 14:22:00,60.1,9.1,30.21,East,79,6.0,14.0,13,0.00,,---,0.00,VWS V14.01,2013-01-18 22:22:00,
2013-01-18 14:27:00,60.3,7.5,30.21,East,84,6.0,14.0,12,0.00,,---,0.00,VWS V14.01,2013-01-18 22:27:00,
2013-01-18 14:30:00,60.2,7.4,30.21,East,90,8.0,14.0,12,0.00,,---,0.00,VWS V14.01,2013-01-18 22:30:00,
2013-01-18 14:32:00,60.3,7.5,30.21,East,96,12.0,13.0,12,0.00,,---,0.00,VWS V14.01,2013-01-18 22:32:00,
2013-01-18 14:37:00,60.4,9.4,30.21,ENE,78,6.0,13.0,13,0.00,,---,0.00,VWS V14.01,2013-01-18 22:37:00,
2013-01-18 14:42:00,60.3,9.3,30.21,East,82,8.0,13.0,13,0.00,,---,0.00,VWS V14.01,2013-01-18 22:42:00,
2013-01-18 14:47:00,60.3,7.5,30.21,ESE,108,9.0,13.0,12,0.00,,---,0.00,VWS V14.01,2013-01-18 22:47:00,
2013-01-18 14:52:00,60.4,7.6,30.21,East,79,7.0,13.0,12,0.00,,---,0.00,VWS V14.01,2013-01-18 22:52:00,
2013-01-18 14:57:00,60.5,7.7,30.21,East,79,9.0,13.0,12,0.00,,---,0.00,VWS V14.01,2013-01-18 22:57:00,
2013-01-18 15:00:00,60.5,7.7,30.21,East,88,11.0,13.0,12,0.00,,---,0.00,VWS V14.01,2013-01-18 23:00:00,
2013-01-18 15:02:00,60.4,7.6,30.21,ENE,78,2.0,11.0,12,0.00,,---,0.00,VWS V14.01,2013-01-18 23:02:00,
2013-01-18 15:07:00,60.4,7.6,30.21,East,84,6.0,12.0,12,0.00,,---,0.00,VWS V14.01,2013-01-18 23:07:00,
2013-01-18 15:12:00,60.3,7.5,30.21,East,95,4.0,12.0,12,0.00,,---,0.00,VWS V14.01,2013-01-18 23:12:00,
2013-01-18 15:17:00,60.4,7.6,30.20,ENE,68,8.0,12.0,12,0.00,,---,0.00,VWS V14.01,2013-01-18 23:17:00,
2013-01-18 15:22:00,60.3,7.5,30.20,East,79,9.0,13.0,12,0.00,,---,0.00,VWS V14.01,2013-01-18 23:22:00,
2013-01-18 15:27:00,60.1,7.3,30.20,East,87,6.0,13.0,12,0.00,,---,0.00,VWS V14.01,2013-01-18 23:27:00,
2013-01-18 15:30:00,58.0,9.1,30.21,ESE,115,6.0,10.0,14,0.00,,---,0.00,VWS V14.01,2013-01-18 23:30:00,
2013-01-18 15:32:00,60.0,9.0,30.20,ESE,115,5.0,9.0,13,0.00,,---,0.00,VWS V14.01,2013-01-18 23:32:00,
2013-01-18 15:37:00,59.9,9.0,30.20,ENE,77,5.0,10.0,13,0.00,,---,0.00,VWS V14.01,2013-01-18 23:37:00,
2013-01-18 15:42:00,59.9,9.0,30.20,ESE,111,6.0,10.0,13,0.00,,---,0.00,VWS V14.01,2013-01-18 23:42:00,
2013-01-18 15:47:00,59.8,8.9,30.21,SE,131,4.0,10.0,13,0.00,,---,0.00,VWS V14.01,2013-01-18 23:47:00,
2013-01-18 15:52:00,59.7,8.8,30.20,East,85,6.0,10.0,13,0.00,,---,0.00,VWS V14.01,2013-01-18 23:52:00,
2013-01-18 15:57:00,59.4,8.6,30.20,SE,129,4.0,10.0,13,0.00,,---,0.00,VWS V14.01,2013-01-18 23:57:00,
2013-01-18 16:00:00,59.3,8.5,30.20,East,93,4.0,10.0,13,0.00,,---,0.00,VWS V14.01,2013-01-19 00:00:00,
2013-01-18 16:02:00,59.2,8.4,30.20,SE,134,3.0,8.0,13,0.00,,---,0.00,VWS V14.01,2013-01-19 00:02:00,
2013-01-18 16:07:00,59.1,8.3,30.20,ESE,117,5.0,8.0,13,0.00,,---,0.00,VWS V14.01,2013-01-19 00:07:00,
2013-01-18 16:12:00,59.0,8.2,30.20,East,96,3.0,10.0,13,0.00,,---,0.00,VWS V14.01,2013-01-19 00:12:00,
2013-01-18 16:17:00,58.7,8.0,30.21,East,79,4.0,10.0,13,0.00,,---,0.00,VWS V14.01,2013-01-19 00:17:00,
2013-01-18 16:22:00,58.5,7.8,30.21,SE,131,3.0,10.0,13,0.00,,---,0.00,VWS V14.01,2013-01-19 00:22:00,
2013-01-18 16:27:00,58.1,9.2,30.21,SE,132,3.0,10.0,14,0.00,,---,0.00,VWS V14.01,2013-01-19 00:27:00,
2013-01-18 16:30:00,58.0,9.1,30.21,ESE,115,6.0,10.0,14,0.00,,---,0.00,VWS V14.01,2013-01-19 00:30:00,
2013-01-18 16:32:00,57.6,8.8,30.21,ESE,110,2.0,7.0,14,0.00,,---,0.00,VWS V14.01,2013-01-19 00:32:00,
2013-01-18 16:37:00,57.1,8.4,30.21,ESE,113,1.0,7.0,14,0.00,,---,0.00,VWS V14.01,2013-01-19 00:37:00,
2013-01-18 16:42:00,56.5,9.4,30.21,SE,129,2.0,7.0,15,0.00,,---,0.00,VWS V14.01,2013-01-19 00:42:00,
2013-01-18 16:47:00,55.9,8.9,30.21,SE,125,2.0,7.0,15,0.00,,---,0.00,VWS V14.01,2013-01-19 00:47:00,
2013-01-18 16:52:00,55.3,8.5,30.21,ESE,107,2.0,7.0,15,0.00,,---,0.00,VWS V14.01,2013-01-19 00:52:00,
2013-01-18 16:57:00,54.7,9.4,30.21,SE,132,2.0,7.0,16,0.00,,---,0.00,VWS V14.01,2013-01-19 00:57:00,
2013-01-18 17:00:00,54.6,9.3,30.21,SE,139,2.0,7.0,16,0.00,,---,0.00,VWS V14.01,2013-01-19 01:00:00,
2013-01-18 17:02:00,54.0,8.8,30.21,SE,131,1.0,4.0,16,0.00,,---,0.00,VWS V14.01,2013-01-19 01:02:00,
2013-01-18 17:07:00,53.2,9.5,30.21,SE,146,2.0,4.0,17,0.00,,---,0.00,VWS V14.01,2013-01-19 01:07:00,
2013-01-18 17:12:00,51.7,8.3,30.22,SE,146,1.0,4.0,17,0.00,,---,0.00,VWS V14.01,2013-01-19 01:12:00,
2013-01-18 17:17:00,50.1,9.5,30.22,SSE,159,1.0,4.0,19,0.00,,---,0.00,VWS V14.01,2013-01-19 01:17:00,
2013-01-18 17:22:00,48.9,9.6,30.22,SSE,158,2.0,4.0,20,0.00,,---,0.00,VWS V14.01,2013-01-19 01:22:00,
2013-01-18 17:27:00,48.0,9.9,30.22,SSE,165,1.0,4.0,21,0.00,,---,0.00,VWS V14.01,2013-01-19 01:27:00,
2013-01-18 17:30:00,47.8,9.8,30.22,SSE,163,1.0,4.0,21,0.00,,---,0.00,VWS V14.01,2013-01-19 01:30:00,
2013-01-18 17:32:00,47.2,9.3,30.22,SSE,159,0.0,2.0,21,0.00,,---,0.00,VWS V14.01,2013-01-19 01:32:00,
2013-01-18 17:37:00,46.3,9.6,30.22,SSE,157,0.0,2.0,22,0.00,,---,0.00,VWS V14.01,2013-01-19 01:37:00,
2013-01-18 17:42:00,45.2,9.6,30.22,SSE,156,0.0,2.0,23,0.00,,---,0.00,VWS V14.01,2013-01-19 01:42:00,
2013-01-18 17:47:00,44.6,9.1,30.22,NW,320,0.0,2.0,23,0.00,,---,0.00,VWS V14.01,2013-01-19 01:47:00,
2013-01-18 17:52:00,44.5,8.0,30.22,NW,319,0.0,2.0,22,0.00,,---,0.00,VWS V14.01,2013-01-19 01:52:00,
2013-01-18 17:57:00,43.1,7.8,30.22,NW,319,0.0,2.0,23,0.00,,---,0.00,VWS V14.01,2013-01-19 01:57:00,
2013-01-18 18:00:00,42.8,7.6,30.22,NW,319,0.0,2.0,23,0.00,,---,0.00,VWS V14.01,2013-01-19 02:00:00,
2013-01-18 18:02:00,41.9,7.8,30.22,NW,319,0.0,0.0,24,0.00,,---,0.00,VWS V14.01,2013-01-19 02:02:00,
2013-01-18 18:07:00,41.1,8.0,30.22,NW,319,0.0,0.0,25,0.00,,---,0.00,VWS V14.01,2013-01-19 02:07:00,
2013-01-18 18:12:00,40.6,8.4,30.22,NW,319,0.0,0.0,26,0.00,,---,0.00,VWS V14.01,2013-01-19 02:12:00,
2013-01-18 18:17:00,40.1,8.8,30.23,NW,319,0.0,0.0,27,0.00,,---,0.00,VWS V14.01,2013-01-19 02:17:00,
2013-01-18 18:22:00,39.7,9.3,30.23,NW,319,0.0,0.0,28,0.00,,---,0.00,VWS V14.01,2013-01-19 02:22:00,
2013-01-18 18:27:00,39.6,9.2,30.23,WNW,300,0.0,0.0,28,0.00,,---,0.00,VWS V14.01,2013-01-19 02:27:00,
2013-01-18 18:30:00,39.7,9.3,30.23,WNW,300,0.0,0.0,28,0.00,,---,0.00,VWS V14.01,2013-01-19 02:30:00,
2013-01-18 18:32:00,39.7,9.3,30.23,WNW,301,0.0,0.0,28,0.00,,---,0.00,VWS V14.01,2013-01-19 02:32:00,
2013-01-18 18:37:00,39.3,8.9,30.23,WNW,301,0.0,0.0,28,0.00,,---,0.00,VWS V14.01,2013-01-19 02:37:00,
2013-01-18 18:42:00,38.5,9.0,30.23,WNW,301,0.0,0.0,29,0.00,,---,0.00,VWS V14.01,2013-01-19 02:42:00,
2013-01-18 18:47:00,38.5,9.8,30.23,SW,224,0.0,1.0,30,0.00,,---,0.00,VWS V14.01,2013-01-19 02:47:00,
2013-01-18 18:52:00,38.5,9.0,30.23,SW,224,0.0,1.0,29,0.00,,---,0.00,VWS V14.01,2013-01-19 02:52:00,
2013-01-18 18:57:00,38.4,9.7,30.23,WSW,237,0.0,1.0,30,0.00,,---,0.00,VWS V14.01,2013-01-19 02:57:00,
2013-01-18 19:00:00,38.5,9.8,30.23,SW,226,0.0,1.0,30,0.00,,---,0.00,VWS V14.01,2013-01-19 03:00:00,
2013-01-18 19:02:00,38.2,10.2,30.23,SW,218,3.0,3.0,31,0.00,,---,0.00,VWS V14.01,2013-01-19 03:02:00,
2013-01-18 19:07:00,37.8,10.6,30.23,SW,220,1.0,4.0,32,0.00,,---,0.00,VWS V14.01,2013-01-19 03:07:00,
2013-01-18 19:12:00,37.6,11.1,30.23,SW,219,1.0,4.0,33,0.00,,---,0.00,VWS V14.01,2013-01-19 03:12:00,
2013-01-18 19:17:00,37.6,11.1,30.23,WSW,242,0.0,4.0,33,0.00,,---,0.00,VWS V14.01,2013-01-19 03:17:00,
2013-01-18 19:22:00,36.1,9.8,30.23,North,1,0.0,4.0,33,0.00,,---,0.00,VWS V14.01,2013-01-19 03:22:00,
2013-01-18 19:27:00,34.3,10.1,30.24,North,1,0.0,4.0,36,0.00,,---,0.00,VWS V14.01,2013-01-19 03:27:00,
2013-01-18 19:30:00,34.2,10.7,30.24,North,1,0.0,4.0,37,0.00,,---,0.00,VWS V14.01,2013-01-19 03:30:00,
2013-01-18 19:32:00,33.5,11.2,30.24,North,1,0.0,0.0,39,0.00,,---,0.00,VWS V14.01,2013-01-19 03:32:00,
2013-01-18 19:37:00,32.1,9.9,30.24,WNW,285,0.0,1.0,39,0.00,,---,0.00,VWS V14.01,2013-01-19 03:37:00,
2013-01-18 19:42:00,30.6,8.6,30.24,WNW,285,0.0,1.0,39,0.00,,---,0.00,VWS V14.01,2013-01-19 03:42:00,
2013-01-18 19:47:00,29.6,9.3,30.23,WNW,283,0.0,2.0,42,0.00,,---,0.00,VWS V14.01,2013-01-19 03:47:00,
2013-01-18 19:52:00,29.2,10.0,30.23,West,273,0.0,2.0,44,0.00,,---,0.00,VWS V14.01,2013-01-19 03:52:00,
2013-01-18 19:57:00,28.5,9.9,30.23,West,280,1.0,2.0,45,0.00,,---,0.00,VWS V14.01,2013-01-19 03:57:00,
2013-01-18 20:00:00,28.4,9.8,30.23,West,280,2.0,2.0,45,0.00,,---,0.00,VWS V14.01,2013-01-19 04:00:00,
2013-01-18 20:02:00,27.9,9.8,30.24,West,280,1.0,2.0,46,0.00,,---,0.00,VWS V14.01,2013-01-19 04:02:00,
2013-01-18 20:07:00,27.1,10.0,30.24,West,277,1.0,2.0,48,0.00,,---,0.00,VWS V14.01,2013-01-19 04:07:00,
2013-01-18 20:12:00,26.7,10.1,30.24,West,269,2.0,2.0,49,0.00,,---,0.00,VWS V14.01,2013-01-19 04:12:00,
2013-01-18 20:17:00,26.3,10.6,30.24,West,262,0.0,2.0,51,0.00,,---,0.00,VWS V14.01,2013-01-19 04:17:00,
2013-01-18 20:22:00,26.3,10.6,30.24,WNW,284,0.0,2.0,51,0.00,,---,0.00,VWS V14.01,2013-01-19 04:22:00,
2013-01-18 20:27:00,26.0,10.8,30.24,West,271,0.0,2.0,52,0.00,,---,0.00,VWS V14.01,2013-01-19 04:27:00,
2013-01-18 20:30:00,25.9,11.1,30.24,West,273,1.0,2.0,53,0.00,,---,0.00,VWS V14.01,2013-01-19 04:30:00,
2013-01-18 20:32:00,25.8,11.5,30.24,West,269,0.0,2.0,54,0.00,,---,0.00,VWS V14.01,2013-01-19 04:32:00,
2013-01-18 20:37:00,25.8,11.5,30.24,West,264,0.0,2.0,54,0.00,,---,0.00,VWS V14.01,2013-01-19 04:37:00,
2013-01-18 20:42:00,25.6,11.3,30.24,West,269,0.0,2.0,54,0.00,,---,0.00,VWS V14.01,2013-01-19 04:42:00,
2013-01-18 20:47:00,25.3,11.4,30.25,West,276,3.0,3.0,55,0.00,,---,0.00,VWS V14.01,2013-01-19 04:47:00,
2013-01-18 20:52:00,25.2,11.7,30.25,West,276,0.0,3.0,56,0.00,,---,0.00,VWS V14.01,2013-01-19 04:52:00,
2013-01-18 20:57:00,25.1,12.0,30.25,WNW,283,1.0,3.0,57,0.00,,---,0.00,VWS V14.01,2013-01-19 04:57:00,
2013-01-18 21:00:00,25.1,12.0,30.25,West,281,1.0,3.0,57,0.00,,---,0.00,VWS V14.01,2013-01-19 05:00:00,
2013-01-18 21:01:00,25.0,12.3,30.25,West,281,2.0,2.0,58,0.00,,---,0.00,VWS V14.01,2013-01-19 05:01:00,
2013-01-18 21:02:00,25.1,12.4,30.25,West,274,1.0,2.0,58,0.00,,---,0.00,VWS V14.01,2013-01-19 05:02:00,
2013-01-18 21:07:00,25.3,13.0,30.25,WSW,256,0.0,2.0,59,0.00,,---,0.00,VWS V14.01,2013-01-19 05:07:00,
2013-01-18 21:12:00,25.5,12.8,30.25,WSW,256,0.0,2.0,58,0.00,,---,0.00,VWS V14.01,2013-01-19 05:12:00,
2013-01-18 21:17:00,25.4,12.3,30.25,West,273,0.0,2.0,57,0.00,,---,0.00,VWS V14.01,2013-01-19 05:17:00,
2013-01-18 21:22:00,25.1,12.4,30.25,West,273,0.0,2.0,58,0.00,,---,0.00,VWS V14.01,2013-01-19 05:22:00,
2013-01-18 21:27:00,25.0,12.7,30.25,West,273,0.0,2.0,59,0.00,,---,0.00,VWS V14.01,2013-01-19 05:27:00,
2013-01-18 21:30:00,25.0,12.7,30.25,West,273,0.0,2.0,59,0.00,,---,0.00,VWS V14.01,2013-01-19 05:30:00,
2013-01-18 21:32:00,25.1,13.2,30.25,West,269,0.0,0.0,60,0.00,,---,0.00,VWS V14.01,2013-01-19 05:32:00,
2013-01-18 21:37:00,24.9,12.6,30.25,WSW,257,0.0,0.0,59,0.00,,---,0.00,VWS V14.01,2013-01-19 05:37:00,
2013-01-18 21:42:00,25.3,13.4,30.25,WSW,256,0.0,0.0,60,0.00,,---,0.00,VWS V14.01,2013-01-19 05:42:00,
2013-01-18 21:47:00,25.4,13.1,30.26,WSW,256,0.0,0.0,59,0.00,,---,0.00,VWS V14.01,2013-01-19 05:47:00,
2013-01-18 21:52:00,25.4,13.1,30.26,WSW,256,0.0,0.0,59,0.00,,---,0.00,VWS V14.01,2013-01-19 05:52:00,
2013-01-18 21:57:00,25.5,13.2,30.26,WSW,252,0.0,0.0,59,0.00,,---,0.00,VWS V14.01,2013-01-19 05:57:00,
2013-01-18 22:00:00,25.5,13.2,30.26,WSW,252,0.0,0.0,59,0.00,,---,0.00,VWS V14.01,2013-01-19 06:00:00,
2013-01-18 22:02:00,25.5,13.2,30.26,WSW,249,0.0,0.0,59,0.00,,---,0.00,VWS V14.01,2013-01-19 06:02:00,
2013-01-18 22:07:00,25.4,13.5,30.26,West,266,0.0,0.0,60,0.00,,---,0.00,VWS V14.01,2013-01-19 06:07:00,
2013-01-18 22:12:00,25.7,13.8,30.26,West,260,0.0,0.0,60,0.00,,---,0.00,VWS V14.01,2013-01-19 06:12:00,
2013-01-18 22:17:00,25.8,13.5,30.26,West,260,0.0,0.0,59,0.00,,---,0.00,VWS V14.01,2013-01-19 06:17:00,
2013-01-18 22:22:00,25.9,13.2,30.26,West,260,0.0,0.0,58,0.00,,---,0.00,VWS V14.01,2013-01-19 06:22:00,
2013-01-18 22:27:00,26.1,13.0,30.26,West,260,0.0,0.0,57,0.00,,---,0.00,VWS V14.01,2013-01-19 06:27:00,
2013-01-18 22:30:00,26.1,13.0,30.26,West,260,0.0,0.0,57,0.00,,---,0.00,VWS V14.01,2013-01-19 06:30:00,
2013-01-18 22:32:00,26.3,13.1,30.26,West,260,0.0,0.0,57,0.00,,---,0.00,VWS V14.01,2013-01-19 06:32:00,
2013-01-18 22:37:00,26.5,12.9,30.26,West,267,0.0,0.0,56,0.00,,---,0.00,VWS V14.01,2013-01-19 06:37:00,
2013-01-18 22:42:00,26.9,13.3,30.26,SW,235,1.0,2.0,56,0.00,,---,0.00,VWS V14.01,2013-01-19 06:42:00,
2013-01-18 22:47:00,27.4,12.5,30.26,SW,232,0.0,2.0,53,0.00,,---,0.00,VWS V14.01,2013-01-19 06:47:00,
2013-01-18 22:52:00,27.7,11.9,30.25,SW,233,0.0,2.0,51,0.00,,---,0.00,VWS V14.01,2013-01-19 06:52:00,
2013-01-18 22:57:00,27.0,10.9,30.25,SW,232,0.0,2.0,50,0.00,,---,0.00,VWS V14.01,2013-01-19 06:57:00,
2013-01-18 23:00:00,26.8,10.7,30.25,SW,233,0.0,2.0,50,0.00,,---,0.00,VWS V14.01,2013-01-19 07:00:00,
2013-01-18 23:02:00,25.3,10.1,30.25,SW,232,0.0,0.0,52,0.00,,---,0.00,VWS V14.01,2013-01-19 07:02:00,
2013-01-18 23:07:00,24.2,10.8,30.25,West,278,0.0,2.0,56,0.00,,---,0.00,VWS V14.01,2013-01-19 07:07:00,
2013-01-18 23:12:00,23.5,10.5,30.25,West,279,0.0,2.0,57,0.00,,---,0.00,VWS V14.01,2013-01-19 07:12:00,
2013-01-18 23:17:00,22.9,10.3,30.25,West,278,0.0,2.0,58,0.00,,---,0.00,VWS V14.01,2013-01-19 07:17:00,
2013-01-18 23:22:00,22.4,10.3,30.25,West,278,0.0,2.0,59,0.00,,---,0.00,VWS V14.01,2013-01-19 07:22:00,
2013-01-18 23:27:00,22.2,10.4,30.25,West,278,0.0,2.0,60,0.00,,---,0.00,VWS V14.01,2013-01-19 07:27:00,
2013-01-18 23:30:00,22.2,10.4,30.25,West,278,0.0,2.0,60,0.00,,---,0.00,VWS V14.01,2013-01-19 07:30:00,
2013-01-18 23:32:00,21.9,10.5,30.25,West,280,0.0,0.0,61,0.00,,---,0.00,VWS V14.01,2013-01-19 07:32:00,
2013-01-18 23:38:00,21.3,10.7,30.25,West,266,0.0,0.0,63,0.00,,---,0.00,VWS V14.01,2013-01-19 07:38:00,
2013-01-18 23:43:00,21.3,11.4,30.25,West,266,0.0,3.0,65,0.00,,---,0.00,VWS V14.01,2013-01-19 07:43:00,
2013-01-18 23:48:00,21.2,10.9,30.25,West,266,0.0,3.0,64,0.00,,---,0.00,VWS V14.01,2013-01-19 07:48:00,
2013-01-18 23:53:00,21.4,11.1,30.25,West,266,0.0,3.0,64,0.00,,---,0.00,VWS V14.01,2013-01-19 07:53:00,
2013-01-18 23:58:00,21.7,11.1,30.25,West,266,0.0,3.0,63,0.00,,---,0.00,VWS V14.01,2013-01-19 07:58:00,